createdAt,value
2018-07-05T00:01:35.800Z,100656.31
2018-07-05T00:04:14.301Z,100658.11
2018-07-05T00:06:52.929Z,100655.92
2018-07-05T00:09:32.411Z,100657.46
2018-07-05T00:12:10.975Z,100652.22
2018-07-05T00:14:50.107Z,100648.23
2018-07-05T00:17:29.114Z,100646.11
2018-07-05T00:20:08.922Z,100644.09
2018-07-05T00:22:47.708Z,100647.75
2018-07-05T00:25:26.658Z,100649.22
2018-07-05T00:28:05.294Z,100646.20
2018-07-05T00:30:44.528Z,100646.73
2018-07-05T00:33:23.191Z,100645.78
2018-07-05T00:36:01.967Z,100647.78
2018-07-05T00:38:40.419Z,100649.11
2018-07-05T00:41:19.604Z,100642.72
2018-07-05T00:43:58.544Z,100639.66
2018-07-05T00:46:37.303Z,100641.39
2018-07-05T00:49:16.130Z,100638.94
2018-07-05T00:51:54.814Z,100638.31
2018-07-05T00:54:33.583Z,100636.66
2018-07-05T00:57:12.420Z,100641.36
2018-07-05T00:59:51.089Z,100641.56
2018-07-05T01:02:30.663Z,100642.42
2018-07-05T01:05:09.344Z,100637.59
2018-07-05T01:07:48.228Z,100633.44
2018-07-05T01:10:27.050Z,100635.06
2018-07-05T01:13:05.638Z,100637.41
2018-07-05T01:15:45.126Z,100632.49
2018-07-05T01:18:23.792Z,100640.95
2018-07-05T01:21:02.518Z,100636.61
2018-07-05T01:23:41.176Z,100635.48
2018-07-05T01:26:19.966Z,100639.45
2018-07-05T01:28:58.992Z,100634.50
2018-07-05T01:31:37.614Z,100631.76
2018-07-05T01:34:16.284Z,100632.92
2018-07-05T01:36:55.026Z,100637.39
2018-07-05T01:39:33.673Z,100630.55
2018-07-05T01:42:12.245Z,100625.02
2018-07-05T01:44:51.815Z,100628.06
2018-07-05T01:47:30.539Z,100632.86
2018-07-05T01:50:09.260Z,100625.80
2018-07-05T01:52:47.958Z,100619.39
2018-07-05T01:55:26.917Z,100625.65
2018-07-05T01:58:05.724Z,100622.44
2018-07-05T02:00:44.356Z,100623.52
2018-07-05T02:03:23.053Z,100614.58
2018-07-05T02:06:02.389Z,100621.92
2018-07-05T02:08:41.237Z,100622.95
2018-07-05T02:11:20.056Z,100622.39
2018-07-05T02:13:59.164Z,100625.72
2018-07-05T02:16:38.011Z,100620.36
2018-07-05T02:19:16.504Z,100617.84
2018-07-05T02:21:55.461Z,100618.17
2018-07-05T02:24:34.326Z,100613.33
2018-07-05T02:27:13.549Z,100613.00
2018-07-05T02:29:52.363Z,100608.62
2018-07-05T02:32:31.295Z,100616.39
2018-07-05T02:35:10.084Z,100613.98
2018-07-05T02:37:56.641Z,100614.94
2018-07-05T02:40:35.566Z,100617.66
2018-07-05T02:43:14.312Z,100614.67
2018-07-05T02:45:53.034Z,100612.08
2018-07-05T02:48:32.354Z,100614.80
2018-07-05T02:51:10.908Z,100609.95
2018-07-05T02:53:54.354Z,100614.95
2018-07-05T02:56:32.989Z,100620.03
2018-07-05T02:59:11.918Z,100616.92
2018-07-05T03:01:50.445Z,100624.93
2018-07-05T03:04:29.296Z,100618.24
2018-07-05T03:07:08.173Z,100624.00
2018-07-05T03:09:47.044Z,100615.52
2018-07-05T03:12:25.922Z,100622.26
2018-07-05T03:15:04.710Z,100630.84
2018-07-05T03:17:43.432Z,100623.46
2018-07-05T03:20:22.182Z,100627.61
2018-07-05T03:23:01.007Z,100632.88
2018-07-05T03:25:39.870Z,100636.49
2018-07-05T03:28:18.460Z,100631.08
2018-07-05T03:30:57.560Z,100631.21
2018-07-05T03:33:36.272Z,100629.31
2018-07-05T03:36:15.098Z,100633.35
2018-07-05T03:38:53.793Z,100629.39
2018-07-05T03:41:32.677Z,100631.61
2018-07-05T03:44:11.308Z,100626.52
2018-07-05T03:46:49.935Z,100632.52
2018-07-05T03:49:28.903Z,100631.41
2018-07-05T03:52:09.684Z,100629.00
2018-07-05T03:54:48.351Z,100627.73
2018-07-05T03:57:27.317Z,100630.05
2018-07-05T04:00:06.130Z,100632.02
2018-07-05T04:02:45.935Z,100625.16
2018-07-05T04:05:24.584Z,100628.30
2018-07-05T04:08:03.359Z,100633.67
2018-07-05T04:10:41.957Z,100630.83
2018-07-05T04:13:20.646Z,100635.52
2018-07-05T04:15:59.497Z,100626.87
2018-07-05T04:18:38.276Z,100630.91
2018-07-05T04:21:16.806Z,100631.97
2018-07-05T04:23:55.570Z,100630.48
2018-07-05T04:26:34.248Z,100623.00
2018-07-05T04:29:13.104Z,100628.87
2018-07-05T04:31:51.910Z,100627.73
2018-07-05T04:34:30.576Z,100627.68
2018-07-05T04:37:09.219Z,100629.79
2018-07-05T04:39:48.008Z,100634.09
2018-07-05T04:42:26.806Z,100630.93
2018-07-05T04:45:09.693Z,100639.59
2018-07-05T04:47:48.354Z,100636.56
2018-07-05T04:50:27.356Z,100644.74
2018-07-05T04:53:05.906Z,100637.74
2018-07-05T04:55:44.581Z,100639.27
2018-07-05T04:58:23.507Z,100639.09
2018-07-05T05:01:06.401Z,100637.67
2018-07-05T05:03:44.991Z,100638.14
2018-07-05T05:06:23.914Z,100640.61
2018-07-05T05:09:02.863Z,100642.57
2018-07-05T05:11:41.713Z,100640.25
2018-07-05T05:14:20.577Z,100636.78
2018-07-05T05:16:59.675Z,100645.44
2018-07-05T05:19:38.331Z,100635.55
2018-07-05T05:22:17.438Z,100645.42
2018-07-05T05:24:56.551Z,100640.20
2018-07-05T05:27:35.422Z,100639.93
2018-07-05T05:30:13.970Z,100637.39
2018-07-05T05:32:52.752Z,100633.16
2018-07-05T05:35:31.686Z,100634.87
2018-07-05T05:38:10.561Z,100634.87
2018-07-05T05:40:49.270Z,100632.14
2018-07-05T05:43:29.820Z,100625.52
2018-07-05T05:46:08.339Z,100636.58
2018-07-05T05:48:48.124Z,100627.45
2018-07-05T05:51:27.304Z,100627.10
2018-07-05T05:54:06.572Z,100629.90
2018-07-05T05:56:45.308Z,100633.78
2018-07-05T05:59:24.882Z,100631.97
2018-07-05T06:02:04.023Z,100623.45
2018-07-05T06:04:42.699Z,100625.31
2018-07-05T06:07:21.455Z,100626.84
2018-07-05T06:10:00.255Z,100629.12
2018-07-05T06:12:38.834Z,100629.73
2018-07-05T06:15:17.395Z,100627.55
2018-07-05T06:17:56.860Z,100628.95
2018-07-05T06:20:36.113Z,100636.92
2018-07-05T06:23:14.730Z,100626.52
2018-07-05T06:25:53.349Z,100633.48
2018-07-05T06:28:32.414Z,100634.79
2018-07-05T06:31:11.060Z,100635.00
2018-07-05T06:33:50.774Z,100635.63
2018-07-05T06:36:29.653Z,100640.16
2018-07-05T06:39:09.319Z,100642.41
2018-07-05T06:41:49.124Z,100641.02
2018-07-05T06:44:27.906Z,100641.50
2018-07-05T06:47:06.630Z,100641.20
2018-07-05T06:49:45.156Z,100642.45
2018-07-05T06:52:23.948Z,100637.77
2018-07-05T06:55:04.132Z,100638.98
2018-07-05T06:57:42.943Z,100638.61
2018-07-05T07:00:22.827Z,100633.34
2018-07-05T07:03:01.880Z,100642.33
2018-07-05T07:05:40.455Z,100644.19
2018-07-05T07:08:18.992Z,100651.27
2018-07-05T07:10:57.900Z,100644.94
2018-07-05T07:13:37.776Z,100647.04
2018-07-05T07:16:16.371Z,100647.52
2018-07-05T07:18:55.336Z,100647.66
2018-07-05T07:21:35.743Z,100650.44
2018-07-05T07:24:14.629Z,100657.72
2018-07-05T07:26:53.870Z,100652.08
2018-07-05T07:29:33.539Z,100651.84
2018-07-05T07:32:12.636Z,100647.98
2018-07-05T07:34:51.240Z,100640.98
2018-07-05T07:37:31.163Z,100648.26
2018-07-05T07:40:09.656Z,100648.95
2018-07-05T07:42:36.349Z,100652.30
2018-07-05T07:45:02.775Z,100645.78
2018-07-05T07:47:29.252Z,100650.77
2018-07-05T07:49:56.831Z,100646.05
2018-07-05T07:52:23.135Z,100642.08
2018-07-05T07:54:49.326Z,100635.71
2018-07-05T07:57:15.504Z,100631.73
2018-07-05T07:59:42.142Z,100636.03
2018-07-05T08:02:08.355Z,100635.73
2018-07-05T08:04:35.604Z,100636.64
2018-07-05T08:07:02.065Z,100634.19
2018-07-05T08:09:28.594Z,100639.66
2018-07-05T08:11:54.811Z,100634.09
2018-07-05T08:14:21.105Z,100631.88
2018-07-05T08:16:47.303Z,100635.55
2018-07-05T08:19:13.505Z,100626.38
2018-07-05T08:21:39.807Z,100632.47
2018-07-05T08:24:06.112Z,100621.41
2018-07-05T08:26:32.373Z,100629.92
2018-07-05T08:28:59.010Z,100624.98
2018-07-05T08:31:25.403Z,100621.78
2018-07-05T08:33:51.824Z,100623.95
2018-07-05T08:36:18.037Z,100623.58
2018-07-05T08:38:44.249Z,100621.51
2018-07-05T08:41:10.394Z,100623.20
2018-07-05T08:43:38.735Z,100621.69
2018-07-05T08:46:05.541Z,100618.62
2018-07-05T08:48:32.036Z,100621.36
2018-07-05T08:50:58.513Z,100622.06
2018-07-05T08:53:24.809Z,100618.31
2018-07-05T08:55:51.005Z,100616.61
2018-07-05T08:58:17.323Z,100618.62
2018-07-05T09:00:43.507Z,100619.98
2018-07-05T09:03:09.675Z,100619.90
2018-07-05T09:05:36.025Z,100616.27
2018-07-05T09:08:02.392Z,100625.10
2018-07-05T09:10:28.959Z,100623.02
2018-07-05T09:12:55.233Z,100620.59
2018-07-05T09:15:21.481Z,100619.84
2018-07-05T09:17:47.874Z,100620.97
2018-07-05T09:20:13.838Z,100608.16
2018-07-05T09:22:40.126Z,100605.16
2018-07-05T09:25:06.397Z,100607.95
2018-07-05T09:27:32.639Z,100610.88
2018-07-05T09:29:59.024Z,100615.85
2018-07-05T09:32:25.903Z,100603.53
2018-07-05T09:34:52.286Z,100611.07
2018-07-05T09:37:18.588Z,100603.53
2018-07-05T09:39:44.785Z,100605.66
2018-07-05T09:42:11.008Z,100599.11
2018-07-05T09:44:37.212Z,100592.77
2018-07-05T09:47:03.693Z,100601.84
2018-07-05T09:49:30.174Z,100599.78
2018-07-05T09:51:56.816Z,100598.26
2018-07-05T09:54:23.001Z,100600.75
2018-07-05T09:56:49.166Z,100589.52
2018-07-05T09:59:15.527Z,100602.09
2018-07-05T10:01:41.700Z,100590.77
2018-07-05T10:04:07.991Z,100597.41
2018-07-05T10:06:34.473Z,100591.73
2018-07-05T10:09:00.825Z,100584.63
2018-07-05T10:11:27.457Z,100579.97
2018-07-05T10:13:53.875Z,100579.43
2018-07-05T10:16:20.019Z,100577.50
2018-07-05T10:18:46.189Z,100575.48
2018-07-05T10:21:12.441Z,100563.67
2018-07-05T10:23:38.743Z,100560.66
2018-07-05T10:26:05.366Z,100565.97
2018-07-05T10:28:31.660Z,100567.30
2018-07-05T10:31:10.555Z,100556.50
2018-07-05T10:33:46.200Z,100561.07
2018-07-05T10:36:12.349Z,100551.47
2018-07-05T10:38:38.643Z,100542.00
2018-07-05T10:41:17.348Z,100543.33
2018-07-05T10:43:57.161Z,100545.08
2018-07-05T10:46:36.153Z,100538.67
2018-07-05T10:49:14.968Z,100529.16
2018-07-05T10:51:53.897Z,100534.69
2018-07-05T10:54:32.882Z,100534.89
2018-07-05T10:57:11.528Z,100527.72
2018-07-05T10:59:50.106Z,100521.28
2018-07-05T11:02:29.328Z,100517.33
2018-07-05T11:05:09.082Z,100517.75
2018-07-05T11:07:47.721Z,100518.69
2018-07-05T11:10:27.389Z,100517.17
2018-07-05T11:13:06.286Z,100519.56
2018-07-05T11:15:44.928Z,100514.27
2018-07-05T11:18:23.473Z,100502.32
2018-07-05T11:21:02.186Z,100514.41
2018-07-05T11:23:41.109Z,100500.55
2018-07-05T11:26:20.499Z,100510.98
2018-07-05T11:29:00.020Z,100497.70
2018-07-05T11:31:38.748Z,100493.55
2018-07-05T11:34:17.476Z,100499.59
2018-07-05T11:36:56.703Z,100491.21
2018-07-05T11:39:35.611Z,100487.00
2018-07-05T11:42:14.515Z,100486.36
2018-07-05T11:44:53.229Z,100481.74
2018-07-05T11:47:32.896Z,100484.45
2018-07-05T11:50:11.597Z,100485.25
2018-07-05T11:52:50.257Z,100475.16
2018-07-05T11:55:29.566Z,100477.06
2018-07-05T11:58:08.323Z,100479.01
2018-07-05T12:00:46.953Z,100476.82
2018-07-05T12:03:26.465Z,100480.38
2018-07-05T12:06:05.608Z,100469.09
2018-07-05T12:08:44.365Z,100473.50
2018-07-05T12:11:22.951Z,100466.95
2018-07-05T12:14:01.751Z,100478.44
2018-07-05T12:16:40.360Z,100467.03
2018-07-05T12:19:19.979Z,100464.58
2018-07-05T12:21:59.640Z,100463.83
2018-07-05T12:24:38.326Z,100455.15
2018-07-05T12:27:17.058Z,100452.61
2018-07-05T12:29:56.600Z,100447.12
2018-07-05T12:32:36.511Z,100448.47
2018-07-05T12:35:15.214Z,100443.71
2018-07-05T12:37:53.851Z,100447.34
2018-07-05T12:40:33.843Z,100444.36
2018-07-05T12:43:12.621Z,100442.58
2018-07-05T12:45:51.128Z,100452.03
2018-07-05T12:48:30.259Z,100445.80
2018-07-05T12:51:09.186Z,100444.88
2018-07-05T12:53:47.885Z,100445.86
2018-07-05T12:56:27.335Z,100441.22
2018-07-05T12:59:06.406Z,100440.87
2018-07-05T13:01:46.973Z,100437.69
2018-07-05T13:04:26.212Z,100436.58
2018-07-05T13:07:04.985Z,100435.95
2018-07-05T13:09:43.536Z,100432.88
2018-07-05T13:12:22.223Z,100432.51
2018-07-05T13:15:01.411Z,100439.58
2018-07-05T13:17:40.220Z,100434.25
2018-07-05T13:20:18.985Z,100431.95
2018-07-05T13:22:58.447Z,100426.45
2018-07-05T13:25:37.625Z,100433.49
2018-07-05T13:28:16.280Z,100428.19
2018-07-05T13:30:55.368Z,100419.87
2018-07-05T13:33:34.534Z,100420.08
2018-07-05T13:36:13.182Z,100419.42
2018-07-05T13:38:51.666Z,100424.56
2018-07-05T13:41:30.740Z,100422.99
2018-07-05T13:44:09.561Z,100420.09
2018-07-05T13:46:48.155Z,100422.88
2018-07-05T13:49:28.789Z,100420.25
2018-07-05T13:52:08.096Z,100435.94
2018-07-05T13:54:47.913Z,100436.81
2018-07-05T13:57:27.599Z,100422.94
2018-07-05T14:00:07.340Z,100420.63
2018-07-05T14:02:46.075Z,100426.83
2018-07-05T14:05:24.619Z,100423.25
2018-07-05T14:08:04.118Z,100426.52
2018-07-05T14:10:42.868Z,100419.23
2018-07-05T14:13:21.541Z,100416.01
2018-07-05T14:16:00.560Z,100420.97
2018-07-05T14:18:39.259Z,100420.16
2018-07-05T14:21:17.772Z,100414.19
2018-07-05T14:23:57.292Z,100411.69
2018-07-05T14:26:36.093Z,100414.19
2018-07-05T14:29:15.260Z,100421.19
2018-07-05T14:31:54.032Z,100415.77
2018-07-05T14:34:33.226Z,100420.54
2018-07-05T14:37:11.916Z,100412.73
2018-07-05T14:39:51.556Z,100404.90
2018-07-05T14:42:30.510Z,100405.88
2018-07-05T14:45:09.229Z,100417.33
2018-07-05T14:47:47.929Z,100406.95
2018-07-05T14:50:30.719Z,100401.45
2018-07-05T14:53:09.658Z,100411.39
2018-07-05T14:55:48.376Z,100409.92
2018-07-05T14:58:27.282Z,100406.62
2018-07-05T15:01:06.434Z,100405.66
2018-07-05T15:03:45.432Z,100399.23
2018-07-05T15:06:24.030Z,100402.52
2018-07-05T15:09:04.944Z,100399.55
2018-07-05T15:11:43.950Z,100406.17
2018-07-05T15:14:22.436Z,100404.30
2018-07-05T15:17:02.526Z,100412.68
2018-07-05T15:19:41.533Z,100410.59
2018-07-05T15:22:20.113Z,100415.00
2018-07-05T15:25:03.449Z,100406.15
2018-07-05T15:27:42.161Z,100414.46
2018-07-05T15:30:20.940Z,100414.83
2018-07-05T15:33:00.190Z,100416.81
2018-07-05T15:35:38.854Z,100417.88
2018-07-05T15:38:17.698Z,100411.58
2018-07-05T15:40:57.018Z,100411.13
2018-07-05T15:43:36.160Z,100408.41
2018-07-05T15:46:14.995Z,100419.59
2018-07-05T15:48:53.818Z,100408.61
2018-07-05T15:51:32.600Z,100403.89
2018-07-05T15:54:11.619Z,100413.59
2018-07-05T15:56:50.446Z,100408.29
2018-07-05T15:59:29.677Z,100409.97
2018-07-05T16:02:08.574Z,100401.61
2018-07-05T16:04:47.770Z,100401.71
2018-07-05T16:07:27.814Z,100401.73
2018-07-05T16:10:07.651Z,100394.56
2018-07-05T16:12:46.331Z,100382.43
2018-07-05T16:15:25.496Z,100397.55
2018-07-05T16:18:04.856Z,100389.46
2018-07-05T16:20:43.593Z,100392.83
2018-07-05T16:23:22.707Z,100395.81
2018-07-05T16:26:02.217Z,100395.38
2018-07-05T16:28:41.020Z,100396.30
2018-07-05T16:31:19.819Z,100397.39
2018-07-05T16:33:59.412Z,100394.19
2018-07-05T16:36:38.639Z,100402.63
2018-07-05T16:39:17.220Z,100392.02
2018-07-05T16:41:57.479Z,100396.98
2018-07-05T16:44:36.941Z,100393.92
2018-07-05T16:47:15.752Z,100399.42
2018-07-05T16:49:54.451Z,100397.61
2018-07-05T16:52:33.816Z,100400.52
2018-07-05T16:55:12.713Z,100384.72
2018-07-05T16:57:51.340Z,100396.09
2018-07-05T17:00:30.617Z,100401.17
2018-07-05T17:03:10.793Z,100402.39
2018-07-05T17:05:49.543Z,100396.09
2018-07-05T17:08:30.079Z,100404.41
2018-07-05T17:11:08.641Z,100400.03
2018-07-05T17:13:47.415Z,100400.87
2018-07-05T17:16:27.197Z,100402.22
2018-07-05T17:19:06.230Z,100406.06
2018-07-05T17:21:44.824Z,100408.61
2018-07-05T17:24:23.555Z,100406.05
2018-07-05T17:27:02.564Z,100412.42
2018-07-05T17:29:41.255Z,100409.69
2018-07-05T17:32:20.538Z,100413.03
2018-07-05T17:35:00.061Z,100409.06
2018-07-05T17:37:39.140Z,100415.66
2018-07-05T17:40:18.199Z,100423.43
2018-07-05T17:42:59.446Z,100412.83
2018-07-05T17:45:38.332Z,100422.97
2018-07-05T17:48:16.965Z,100419.48
2018-07-05T17:50:56.646Z,100419.13
2018-07-05T17:53:35.655Z,100417.39
2018-07-05T17:56:14.375Z,100418.89
2018-07-05T17:58:53.112Z,100433.58
2018-07-05T18:01:38.176Z,100428.41
2018-07-05T18:04:16.699Z,100428.50
2018-07-05T18:06:55.462Z,100441.47
2018-07-05T18:09:34.345Z,100439.81
2018-07-05T18:12:14.918Z,100449.63
2018-07-05T18:14:53.605Z,100454.17
2018-07-05T18:17:32.606Z,100454.75
2018-07-05T18:20:11.291Z,100468.98
2018-07-05T18:22:50.452Z,100467.78
2018-07-05T18:25:31.078Z,100474.95
2018-07-05T18:28:09.954Z,100482.84
2018-07-05T18:30:48.681Z,100471.58
2018-07-05T18:33:28.161Z,100474.80
2018-07-05T18:36:07.044Z,100481.46
2018-07-05T18:38:46.029Z,100479.66
2018-07-05T18:41:24.696Z,100491.75
2018-07-05T18:44:03.444Z,100492.81
2018-07-05T18:46:42.148Z,100492.45
2018-07-05T18:49:20.912Z,100495.83
2018-07-05T18:52:00.112Z,100499.73
2018-07-05T18:54:39.257Z,100506.84
2018-07-05T18:57:17.842Z,100506.73
2018-07-05T18:59:57.044Z,100505.66
2018-07-05T19:02:36.017Z,100513.52
2018-07-05T19:05:15.148Z,100515.86
2018-07-05T19:07:54.654Z,100519.86
2018-07-05T19:10:33.751Z,100520.91
2018-07-05T19:13:12.205Z,100523.47
2018-07-05T19:15:51.013Z,100533.22
2018-07-05T19:18:31.092Z,100530.84
2018-07-05T19:21:09.960Z,100531.55
2018-07-05T19:23:48.526Z,100544.08
2018-07-05T19:26:27.997Z,100539.17
2018-07-05T19:29:07.285Z,100543.35
2018-07-05T19:31:46.432Z,100550.20
2018-07-05T19:34:26.292Z,100544.58
2018-07-05T19:37:05.195Z,100549.80
2018-07-05T19:39:43.892Z,100554.55
2018-07-05T19:42:23.069Z,100553.08
2018-07-05T19:45:01.946Z,100552.89
2018-07-05T19:47:41.430Z,100555.29
2018-07-05T19:50:20.141Z,100555.42
2018-07-05T19:52:59.737Z,100561.10
2018-07-05T19:55:38.533Z,100563.98
2018-07-05T19:58:17.472Z,100562.32
2018-07-05T20:01:00.320Z,100577.13
2018-07-05T20:03:39.803Z,100569.31
2018-07-05T20:06:18.597Z,100574.95
2018-07-05T20:08:58.220Z,100578.46
2018-07-05T20:11:42.018Z,100579.23
2018-07-05T20:14:20.689Z,100587.59
2018-07-05T20:16:59.934Z,100583.38
2018-07-05T20:19:39.889Z,100589.99
2018-07-05T20:22:19.500Z,100586.20
2018-07-05T20:24:59.141Z,100593.53
2018-07-05T20:27:38.259Z,100592.77
2018-07-05T20:30:17.126Z,100592.31
2018-07-05T20:32:56.877Z,100593.90
2018-07-05T20:35:35.806Z,100596.48
2018-07-05T20:38:14.356Z,100602.83
2018-07-05T20:40:53.279Z,100601.86
2018-07-05T20:43:32.322Z,100605.55
2018-07-05T20:46:11.001Z,100607.76
2018-07-05T20:48:49.684Z,100614.36
2018-07-05T20:51:29.131Z,100616.92
2018-07-05T20:54:08.540Z,100618.02
2018-07-05T20:56:47.215Z,100621.91
2018-07-05T20:59:26.114Z,100630.59
2018-07-05T21:02:05.080Z,100637.41
2018-07-05T21:04:44.747Z,100641.09
2018-07-05T21:07:23.874Z,100641.52
2018-07-05T21:10:02.689Z,100651.78
2018-07-05T21:12:41.446Z,100655.19
2018-07-05T21:15:20.272Z,100660.41
2018-07-05T21:17:59.310Z,100664.06
2018-07-05T21:20:38.529Z,100665.14
2018-07-05T21:23:17.648Z,100670.56
2018-07-05T21:25:57.022Z,100685.55
2018-07-05T21:28:36.389Z,100680.17
2018-07-05T21:31:15.025Z,100686.03
2018-07-05T21:33:54.021Z,100689.56
2018-07-05T21:36:32.904Z,100684.14
2018-07-05T21:39:11.606Z,100693.68
2018-07-05T21:41:50.484Z,100693.52
2018-07-05T21:44:33.914Z,100705.96
2018-07-05T21:47:13.762Z,100713.07
2018-07-05T21:49:52.972Z,100713.07
2018-07-05T21:52:31.971Z,100715.75
2018-07-05T21:55:11.137Z,100716.59
2018-07-05T21:57:49.822Z,100718.59
2018-07-05T22:00:28.992Z,100726.84
2018-07-05T22:03:08.131Z,100736.30
2018-07-05T22:05:46.764Z,100726.52
2018-07-05T22:08:26.698Z,100733.15
2018-07-05T22:11:05.779Z,100731.39
2018-07-05T22:13:44.338Z,100733.84
2018-07-05T22:16:23.077Z,100725.06
2018-07-05T22:19:07.674Z,100727.33
2018-07-05T22:21:52.533Z,100730.00
2018-07-05T22:24:36.949Z,100734.66
2018-07-05T22:27:21.776Z,100736.02
2018-07-05T22:30:08.251Z,100739.95
2018-07-05T22:32:46.967Z,100736.84
2018-07-05T22:35:25.853Z,100742.78
2018-07-05T22:38:04.944Z,100744.17
2018-07-05T22:40:43.647Z,100746.98
2018-07-05T22:43:22.308Z,100748.55
2018-07-05T22:46:01.073Z,100746.31
2018-07-05T22:48:39.833Z,100757.39
2018-07-05T22:51:18.449Z,100753.34
2018-07-05T22:53:57.559Z,100757.68
2018-07-05T22:56:36.278Z,100769.41
2018-07-05T22:59:14.944Z,100769.39
2018-07-05T23:01:53.705Z,100769.80
2018-07-05T23:04:32.597Z,100772.82
2018-07-05T23:07:11.122Z,100772.52
2018-07-05T23:09:49.856Z,100778.25
2018-07-05T23:12:28.775Z,100781.39
2018-07-05T23:15:08.004Z,100784.83
2018-07-05T23:17:46.809Z,100788.31
2018-07-05T23:20:25.755Z,100791.92
2018-07-05T23:23:04.612Z,100793.97
2018-07-05T23:25:43.176Z,100795.47
2018-07-05T23:28:21.845Z,100801.65
2018-07-05T23:31:01.048Z,100804.59
2018-07-05T23:33:40.007Z,100799.98
2018-07-05T23:36:18.788Z,100804.99
2018-07-05T23:38:58.134Z,100807.35
2018-07-05T23:41:37.154Z,100806.25
2018-07-05T23:44:16.201Z,100806.20
2018-07-05T23:46:54.991Z,100807.41
2018-07-05T23:49:33.921Z,100816.24
2018-07-05T23:52:12.745Z,100814.83
2018-07-05T23:54:51.313Z,100813.72
2018-07-05T23:57:30.484Z,100814.98
